sensor_id;sensor_type;location;lat;lon;timestamp;pressure;altitude;pressure_sealevel;temperature;humidity
46448;BME280;32145;50.390;30.778;2023-04-08T00:02:48;100439.53;;;8.53;76.56
46448;BME280;32145;50.390;30.778;2023-04-08T00:05:43;100444.75;;;8.55;76.72
46448;BME280;32145;50.390;30.778;2023-04-08T00:08:37;100443.69;;;8.56;76.61
46448;BME280;32145;50.390;30.778;2023-04-08T00:11:31;100445.78;;;8.54;76.56
46448;BME280;32145;50.390;30.778;2023-04-08T00:14:27;100452.41;;;8.51;76.45
46448;BME280;32145;50.390;30.778;2023-04-08T00:17:23;100443.66;;;8.49;76.59
46448;BME280;32145;50.390;30.778;2023-04-08T00:20:21;100441.38;;;8.46;76.91
46448;BME280;32145;50.390;30.778;2023-04-08T00:23:17;100437.00;;;8.45;76.71
46448;BME280;32145;50.390;30.778;2023-04-08T00:26:12;100438.66;;;8.46;77.17
46448;BME280;32145;50.390;30.778;2023-04-08T00:29:06;100434.94;;;8.47;77.23
46448;BME280;32145;50.390;30.778;2023-04-08T00:32:04;100435.75;;;8.47;77.20
46448;BME280;32145;50.390;30.778;2023-04-08T00:35:00;100438.47;;;8.47;77.38
46448;BME280;32145;50.390;30.778;2023-04-08T00:37:57;100433.91;;;8.48;77.49
46448;BME280;32145;50.390;30.778;2023-04-08T00:40:54;100434.72;;;8.48;77.53
46448;BME280;32145;50.390;30.778;2023-04-08T00:43:51;100433.69;;;8.49;77.69
46448;BME280;32145;50.390;30.778;2023-04-08T00:46:47;100437.00;;;8.51;77.71
46448;BME280;32145;50.390;30.778;2023-04-08T00:49:45;100435.97;;;8.52;77.96
46448;BME280;32145;50.390;30.778;2023-04-08T00:52:41;100433.25;;;8.52;77.83
46448;BME280;32145;50.390;30.778;2023-04-08T00:55:37;100428.72;;;8.53;77.90
46448;BME280;32145;50.390;30.778;2023-04-08T00:58:32;100422.28;;;8.54;78.14
46448;BME280;32145;50.390;30.778;2023-04-08T01:01:33;100421.25;;;8.55;78.28
46448;BME280;32145;50.390;30.778;2023-04-08T01:04:40;100429.97;;;8.57;78.44
46448;BME280;32145;50.390;30.778;2023-04-08T01:07:44;100431.63;;;8.58;78.43
46448;BME280;32145;50.390;30.778;2023-04-08T01:10:40;100429.38;;;8.55;78.44
46448;BME280;32145;50.390;30.778;2023-04-08T01:13:39;100429.97;;;8.57;78.39
46448;BME280;32145;50.390;30.778;2023-04-08T01:16:33;100426.66;;;8.55;78.61
46448;BME280;32145;50.390;30.778;2023-04-08T01:19:32;100425.41;;;8.58;78.68
46448;BME280;32145;50.390;30.778;2023-04-08T01:22:36;100427.91;;;8.59;78.92
46448;BME280;32145;50.390;30.778;2023-04-08T01:25:38;100426.22;;;8.58;78.75
46448;BME280;32145;50.390;30.778;2023-04-08T01:28:35;100424.56;;;8.57;78.76
46448;BME280;32145;50.390;30.778;2023-04-08T01:31:35;100430.38;;;8.54;78.56
46448;BME280;32145;50.390;30.778;2023-04-08T01:34:33;100421.19;;;8.48;78.79
46448;BME280;32145;50.390;30.778;2023-04-08T01:37:32;100422.03;;;8.42;78.79
46448;BME280;32145;50.390;30.778;2023-04-08T01:40:28;100421.84;;;8.37;79.01
46448;BME280;32145;50.390;30.778;2023-04-08T01:43:23;100425.75;;;8.34;79.40
46448;BME280;32145;50.390;30.778;2023-04-08T01:46:19;100420.78;;;8.31;79.54
46448;BME280;32145;50.390;30.778;2023-04-08T01:49:15;100426.59;;;8.28;79.42
46448;BME280;32145;50.390;30.778;2023-04-08T01:52:10;100426.16;;;8.24;79.41
46448;BME280;32145;50.390;30.778;2023-04-08T01:55:06;100432.41;;;8.25;79.30
46448;BME280;32145;50.390;30.778;2023-04-08T01:58:04;100430.34;;;8.27;79.37
46448;BME280;32145;50.390;30.778;2023-04-08T02:01:03;100430.34;;;8.27;79.67
46448;BME280;32145;50.390;30.778;2023-04-08T02:04:03;100433.03;;;8.27;79.93
46448;BME280;32145;50.390;30.778;2023-04-08T02:07:00;100441.97;;;8.28;79.40
46448;BME280;32145;50.390;30.778;2023-04-08T02:09:55;100437.41;;;8.28;79.50
46448;BME280;32145;50.390;30.778;2023-04-08T02:12:49;100435.31;;;8.30;79.49
46448;BME280;32145;50.390;30.778;2023-04-08T02:15:48;100428.06;;;8.31;80.10
46448;BME280;32145;50.390;30.778;2023-04-08T02:18:48;100427.41;;;8.29;79.88
46448;BME280;32145;50.390;30.778;2023-04-08T02:21:51;100423.69;;;8.30;80.00
46448;BME280;32145;50.390;30.778;2023-04-08T02:24:48;100430.94;;;8.29;80.01
46448;BME280;32145;50.390;30.778;2023-04-08T02:27:45;100429.09;;;8.30;80.19
46448;BME280;32145;50.390;30.778;2023-04-08T02:30:41;100427.84;;;8.32;80.38
46448;BME280;32145;50.390;30.778;2023-04-08T02:33:37;100411.84;;;8.31;80.06
46448;BME280;32145;50.390;30.778;2023-04-08T02:36:32;100412.03;;;8.29;80.28
46448;BME280;32145;50.390;30.778;2023-04-08T02:39:31;100423.06;;;8.28;80.70
46448;BME280;32145;50.390;30.778;2023-04-08T02:42:28;100423.25;;;8.26;80.17
46448;BME280;32145;50.390;30.778;2023-04-08T02:45:26;100424.28;;;8.25;80.37
46448;BME280;32145;50.390;30.778;2023-04-08T02:48:24;100430.34;;;8.27;80.49
46448;BME280;32145;50.390;30.778;2023-04-08T02:51:20;100426.59;;;8.28;80.57
46448;BME280;32145;50.390;30.778;2023-04-08T02:54:17;100436.16;;;8.31;80.79
46448;BME280;32145;50.390;30.778;2023-04-08T02:57:15;100441.16;;;8.34;80.64
46448;BME280;32145;50.390;30.778;2023-04-08T03:00:12;100443.84;;;8.34;80.53
46448;BME280;32145;50.390;30.778;2023-04-08T03:03:09;100437.41;;;8.35;80.74
46448;BME280;32145;50.390;30.778;2023-04-08T03:06:05;100431.38;;;8.33;80.76
46448;BME280;32145;50.390;30.778;2023-04-08T03:09:01;100431.59;;;8.31;80.76
46448;BME280;32145;50.390;30.778;2023-04-08T03:11:58;100436.34;;;8.29;80.63
46448;BME280;32145;50.390;30.778;2023-04-08T03:14:56;100448.00;;;8.30;80.47
46448;BME280;32145;50.390;30.778;2023-04-08T03:17:52;100438.22;;;8.29;80.97
46448;BME280;32145;50.390;30.778;2023-04-08T03:20:48;100439.06;;;8.29;80.96
46448;BME280;32145;50.390;30.778;2023-04-08T03:23:45;100446.97;;;8.31;80.92
46448;BME280;32145;50.390;30.778;2023-04-08T03:26:41;100454.88;;;8.32;81.16
46448;BME280;32145;50.390;30.778;2023-04-08T03:29:37;100443.66;;;8.35;81.12
46448;BME280;32145;50.390;30.778;2023-04-08T03:32:35;100448.63;;;8.38;81.20
46448;BME280;32145;50.390;30.778;2023-04-08T03:35:31;100442.00;;;8.41;81.02
46448;BME280;32145;50.390;30.778;2023-04-08T03:38:25;100444.47;;;8.43;81.11
46448;BME280;32145;50.390;30.778;2023-04-08T03:41:19;100445.13;;;8.45;81.12
46448;BME280;32145;50.390;30.778;2023-04-08T03:44:16;100444.28;;;8.44;81.02
46448;BME280;32145;50.390;30.778;2023-04-08T03:47:12;100439.06;;;8.43;81.41
46448;BME280;32145;50.390;30.778;2023-04-08T03:50:10;100437.41;;;8.42;81.37
46448;BME280;32145;50.390;30.778;2023-04-08T03:53:06;100437.00;;;8.38;81.63
46448;BME280;32145;50.390;30.778;2023-04-08T03:56:03;100441.56;;;8.37;81.44
46448;BME280;32145;50.390;30.778;2023-04-08T03:58:59;100441.56;;;8.37;81.52
46448;BME280;32145;50.390;30.778;2023-04-08T04:01:56;100446.34;;;8.35;81.50
46448;BME280;32145;50.390;30.778;2023-04-08T04:04:52;100447.16;;;8.36;81.42
46448;BME280;32145;50.390;30.778;2023-04-08T04:07:50;100456.13;;;8.36;81.54
46448;BME280;32145;50.390;30.778;2023-04-08T04:10:46;100457.78;;;8.37;81.34
46448;BME280;32145;50.390;30.778;2023-04-08T04:13:42;100456.53;;;8.40;81.38
46448;BME280;32145;50.390;30.778;2023-04-08T04:16:39;100461.53;;;8.43;81.54
46448;BME280;32145;50.390;30.778;2023-04-08T04:19:35;100466.72;;;8.45;81.60
46448;BME280;32145;50.390;30.778;2023-04-08T04:22:31;100461.53;;;8.50;81.44
46448;BME280;32145;50.390;30.778;2023-04-08T04:25:27;100471.56;;;8.56;81.67
46448;BME280;32145;50.390;30.778;2023-04-08T04:28:21;100473.03;;;8.59;81.53
46448;BME280;32145;50.390;30.778;2023-04-08T04:31:19;100472.81;;;8.67;81.55
46448;BME280;32145;50.390;30.778;2023-04-08T04:34:13;100473.66;;;8.74;81.69
46448;BME280;32145;50.390;30.778;2023-04-08T04:37:08;100476.56;;;8.80;81.61
46448;BME280;32145;50.390;30.778;2023-04-08T04:40:02;100475.31;;;8.82;81.09
46448;BME280;32145;50.390;30.778;2023-04-08T04:42:58;100471.16;;;8.86;81.19
46448;BME280;32145;50.390;30.778;2023-04-08T04:45:52;100477.84;;;8.91;81.40
46448;BME280;32145;50.390;30.778;2023-04-08T04:48:47;100494.69;;;8.93;80.97
46448;BME280;32145;50.390;30.778;2023-04-08T04:51:41;100494.28;;;8.96;80.95
46448;BME280;32145;50.390;30.778;2023-04-08T04:54:35;100496.56;;;8.99;80.70
46448;BME280;32145;50.390;30.778;2023-04-08T04:57:30;100490.72;;;9.02;80.55
46448;BME280;32145;50.390;30.778;2023-04-08T05:00:25;100493.22;;;9.03;80.66
46448;BME280;32145;50.390;30.778;2023-04-08T05:03:19;100496.97;;;9.02;80.26
46448;BME280;32145;50.390;30.778;2023-04-08T05:06:14;100500.72;;;9.08;80.57
46448;BME280;32145;50.390;30.778;2023-04-08T05:09:08;100497.81;;;9.17;80.37
46448;BME280;32145;50.390;30.778;2023-04-08T05:12:03;100500.28;;;9.25;80.33
46448;BME280;32145;50.390;30.778;2023-04-08T05:14:58;100504.66;;;9.33;80.42
46448;BME280;32145;50.390;30.778;2023-04-08T05:17:53;100504.25;;;9.43;80.21
46448;BME280;32145;50.390;30.778;2023-04-08T05:20:47;100504.03;;;9.51;80.18
46448;BME280;32145;50.390;30.778;2023-04-08T05:23:42;100490.69;;;9.56;79.61
46448;BME280;32145;50.390;30.778;2023-04-08T05:26:36;100495.66;;;9.59;79.58
46448;BME280;32145;50.390;30.778;2023-04-08T05:29:30;100500.22;;;9.65;79.47
46448;BME280;32145;50.390;30.778;2023-04-08T05:32:25;100490.63;;;9.76;79.24
46448;BME280;32145;50.390;30.778;2023-04-08T05:35:21;100493.09;;;9.85;79.05
46448;BME280;32145;50.390;30.778;2023-04-08T05:38:15;100498.50;;;9.91;78.96
46448;BME280;32145;50.390;30.778;2023-04-08T05:41:09;100503.06;;;9.91;78.14
46448;BME280;32145;50.390;30.778;2023-04-08T05:44:06;100499.94;;;9.94;78.34
46448;BME280;32145;50.390;30.778;2023-04-08T05:47:02;100508.44;;;9.98;78.59
46448;BME280;32145;50.390;30.778;2023-04-08T05:49:56;100510.13;;;9.99;78.78
46448;BME280;32145;50.390;30.778;2023-04-08T05:52:52;100512.44;;;10.02;78.36
46448;BME280;32145;50.390;30.778;2023-04-08T05:55:46;100504.66;;;10.12;78.37
46448;BME280;32145;50.390;30.778;2023-04-08T05:58:41;100501.69;;;10.21;77.75
46448;BME280;32145;50.390;30.778;2023-04-08T06:01:35;100506.53;;;10.18;77.14
46448;BME280;32145;50.390;30.778;2023-04-08T06:04:29;100505.44;;;10.26;77.07
46448;BME280;32145;50.390;30.778;2023-04-08T06:07:24;100509.31;;;10.37;77.64
46448;BME280;32145;50.390;30.778;2023-04-08T06:10:19;100508.66;;;10.49;76.81
46448;BME280;32145;50.390;30.778;2023-04-08T06:13:14;100512.81;;;10.58;76.87
46448;BME280;32145;50.390;30.778;2023-04-08T06:16:13;100514.84;;;10.63;77.20
46448;BME280;32145;50.390;30.778;2023-04-08T06:19:07;100510.91;;;10.65;76.47
46448;BME280;32145;50.390;30.778;2023-04-08T06:22:02;100517.06;;;10.73;76.43
46448;BME280;32145;50.390;30.778;2023-04-08T06:24:56;100510.84;;;10.72;75.62
46448;BME280;32145;50.390;30.778;2023-04-08T06:27:51;100525.41;;;10.78;76.56
46448;BME280;32145;50.390;30.778;2023-04-08T06:30:48;100525.41;;;10.78;76.08
46448;BME280;32145;50.390;30.778;2023-04-08T06:33:44;100522.50;;;10.73;76.42
46448;BME280;32145;50.390;30.778;2023-04-08T06:36:40;100528.97;;;10.72;75.77
46448;BME280;32145;50.390;30.778;2023-04-08T06:39:37;100530.19;;;10.76;76.22
46448;BME280;32145;50.390;30.778;2023-04-08T06:42:33;100535.56;;;10.89;76.03
46448;BME280;32145;50.390;30.778;2023-04-08T06:45:31;100532.72;;;11.03;75.54
46448;BME280;32145;50.390;30.778;2023-04-08T06:48:27;100545.75;;;11.19;75.50
46448;BME280;32145;50.390;30.778;2023-04-08T06:51:23;100541.53;;;11.24;75.22
46448;BME280;32145;50.390;30.778;2023-04-08T06:54:17;100542.69;;;11.34;74.91
46448;BME280;32145;50.390;30.778;2023-04-08T06:57:12;100541.75;;;11.47;74.62
46448;BME280;32145;50.390;30.778;2023-04-08T07:00:07;100542.31;;;11.56;74.65
46448;BME280;32145;50.390;30.778;2023-04-08T07:03:03;100552.50;;;11.61;74.40
46448;BME280;32145;50.390;30.778;2023-04-08T07:05:57;100554.94;;;11.69;73.90
46448;BME280;32145;50.390;30.778;2023-04-08T07:08:52;100549.19;;;11.78;72.79
46448;BME280;32145;50.390;30.778;2023-04-08T07:11:46;100552.22;;;11.88;73.10
46448;BME280;32145;50.390;30.778;2023-04-08T07:14:40;100549.19;;;11.96;72.95
46448;BME280;32145;50.390;30.778;2023-04-08T07:17:34;100549.09;;;12.10;72.75
46448;BME280;32145;50.390;30.778;2023-04-08T07:20:30;100564.03;;;12.19;72.19
46448;BME280;32145;50.390;30.778;2023-04-08T07:23:25;100558.13;;;12.41;72.25
46448;BME280;32145;50.390;30.778;2023-04-08T07:26:19;100553.81;;;12.64;71.61
46448;BME280;32145;50.390;30.778;2023-04-08T07:29:13;100557.47;;;12.88;71.08
46448;BME280;32145;50.390;30.778;2023-04-08T07:32:07;100555.38;;;13.02;70.37
46448;BME280;32145;50.390;30.778;2023-04-08T07:35:02;100554.91;;;13.18;70.26
46448;BME280;32145;50.390;30.778;2023-04-08T07:37:59;100554.94;;;13.30;69.71
46448;BME280;32145;50.390;30.778;2023-04-08T07:40:55;100554.09;;;13.29;68.88
46448;BME280;32145;50.390;30.778;2023-04-08T07:43:51;100552.22;;;13.30;67.83
46448;BME280;32145;50.390;30.778;2023-04-08T07:46:48;100565.25;;;13.39;67.42
46448;BME280;32145;50.390;30.778;2023-04-08T07:49:45;100555.91;;;13.35;66.70
46448;BME280;32145;50.390;30.778;2023-04-08T07:52:39;100555.88;;;13.47;67.29
46448;BME280;32145;50.390;30.778;2023-04-08T07:55:34;100556.41;;;13.68;67.42
46448;BME280;32145;50.390;30.778;2023-04-08T07:58:29;100548.69;;;13.77;67.04
46448;BME280;32145;50.390;30.778;2023-04-08T08:01:23;100545.25;;;13.82;67.41
46448;BME280;32145;50.390;30.778;2023-04-08T08:04:17;100541.47;;;13.83;66.88
46448;BME280;32145;50.390;30.778;2023-04-08T08:07:12;100545.59;;;13.85;67.18
46448;BME280;32145;50.390;30.778;2023-04-08T08:10:09;100545.50;;;13.80;66.47
46448;BME280;32145;50.390;30.778;2023-04-08T08:13:06;100547.16;;;13.69;66.25
46448;BME280;32145;50.390;30.778;2023-04-08T08:16:03;100535.31;;;13.75;66.60
46448;BME280;32145;50.390;30.778;2023-04-08T08:18:59;100545.13;;;13.88;66.31
46448;BME280;32145;50.390;30.778;2023-04-08T08:21:55;100534.81;;;13.90;65.80
46448;BME280;32145;50.390;30.778;2023-04-08T08:24:54;100540.75;;;13.99;65.72
46448;BME280;32145;50.390;30.778;2023-04-08T08:27:50;100539.28;;;14.09;65.51
46448;BME280;32145;50.390;30.778;2023-04-08T08:30:46;100547.72;;;14.07;64.95
46448;BME280;32145;50.390;30.778;2023-04-08T08:33:41;100540.13;;;13.97;65.23
46448;BME280;32145;50.390;30.778;2023-04-08T08:36:35;100541.94;;;13.91;65.33
46448;BME280;32145;50.390;30.778;2023-04-08T08:39:29;100549.75;;;13.88;65.78
46448;BME280;32145;50.390;30.778;2023-04-08T08:42:24;100542.63;;;13.87;65.78
46448;BME280;32145;50.390;30.778;2023-04-08T08:45:19;100538.97;;;13.81;65.38
46448;BME280;32145;50.390;30.778;2023-04-08T08:48:17;100543.00;;;13.78;65.24
46448;BME280;32145;50.390;30.778;2023-04-08T08:51:13;100544.41;;;13.81;65.53
46448;BME280;32145;50.390;30.778;2023-04-08T08:54:07;100543.13;;;13.84;64.44
46448;BME280;32145;50.390;30.778;2023-04-08T08:57:02;100545.97;;;13.89;64.91
46448;BME280;32145;50.390;30.778;2023-04-08T08:59:58;100540.38;;;13.96;64.78
46448;BME280;32145;50.390;30.778;2023-04-08T09:02:54;100549.03;;;14.04;64.44
46448;BME280;32145;50.390;30.778;2023-04-08T09:05:51;100546.63;;;14.20;64.63
46448;BME280;32145;50.390;30.778;2023-04-08T09:08:47;100550.59;;;14.29;63.97
46448;BME280;32145;50.390;30.778;2023-04-08T09:11:43;100539.78;;;14.35;62.93
46448;BME280;32145;50.390;30.778;2023-04-08T09:14:37;100536.59;;;14.38;62.65
46448;BME280;32145;50.390;30.778;2023-04-08T09:17:32;100541.16;;;14.49;63.23
46448;BME280;32145;50.390;30.778;2023-04-08T09:20:26;100543.59;;;14.63;62.59
46448;BME280;32145;50.390;30.778;2023-04-08T09:23:22;100540.13;;;14.67;61.72
46448;BME280;32145;50.390;30.778;2023-04-08T09:26:17;100545.69;;;14.73;61.83
46448;BME280;32145;50.390;30.778;2023-04-08T09:29:12;100548.72;;;14.88;61.94
46448;BME280;32145;50.390;30.778;2023-04-08T09:32:06;100546.34;;;14.92;60.65
46448;BME280;32145;50.390;30.778;2023-04-08T09:35:00;100544.19;;;14.94;60.02
46448;BME280;32145;50.390;30.778;2023-04-08T09:37:55;100536.41;;;15.03;60.09
46448;BME280;32145;50.390;30.778;2023-04-08T09:40:51;100551.91;;;15.14;59.68
46448;BME280;32145;50.390;30.778;2023-04-08T09:43:47;100554.53;;;15.26;58.68
46448;BME280;32145;50.390;30.778;2023-04-08T09:46:55;100551.72;;;15.55;58.21
46448;BME280;32145;50.390;30.778;2023-04-08T09:49:56;100552.31;;;15.97;57.16
46448;BME280;32145;50.390;30.778;2023-04-08T09:53:00;100549.91;;;16.23;55.41
46448;BME280;32145;50.390;30.778;2023-04-08T09:55:56;100556.38;;;16.39;54.96
46448;BME280;32145;50.390;30.778;2023-04-08T09:58:58;100558.03;;;16.18;53.31
46448;BME280;32145;50.390;30.778;2023-04-08T10:01:53;100556.13;;;15.96;54.81
46448;BME280;32145;50.390;30.778;2023-04-08T10:04:51;100558.69;;;15.85;54.90
46448;BME280;32145;50.390;30.778;2023-04-08T10:07:50;100551.91;;;15.88;55.37
46448;BME280;32145;50.390;30.778;2023-04-08T10:10:46;100552.41;;;15.85;55.54
46448;BME280;32145;50.390;30.778;2023-04-08T10:13:44;100556.41;;;15.77;55.46
46448;BME280;32145;50.390;30.778;2023-04-08T10:16:40;100559.00;;;15.67;55.64
46448;BME280;32145;50.390;30.778;2023-04-08T10:19:38;100552.94;;;15.65;55.21
46448;BME280;32145;50.390;30.778;2023-04-08T10:22:52;100558.41;;;15.65;53.74
46448;BME280;32145;50.390;30.778;2023-04-08T10:25:48;100554.78;;;15.59;54.71
46448;BME280;32145;50.390;30.778;2023-04-08T10:28:46;100558.34;;;15.59;54.79
46448;BME280;32145;50.390;30.778;2023-04-08T10:31:42;100559.50;;;15.64;54.62
46448;BME280;32145;50.390;30.778;2023-04-08T10:34:50;100562.34;;;15.74;53.50
46448;BME280;32145;50.390;30.778;2023-04-08T10:37:47;100567.81;;;15.74;53.36
46448;BME280;32145;50.390;30.778;2023-04-08T10:40:44;100567.31;;;15.77;53.69
46448;BME280;32145;50.390;30.778;2023-04-08T10:43:40;100566.66;;;15.87;53.69
46448;BME280;32145;50.390;30.778;2023-04-08T10:46:38;100563.47;;;16.13;53.50
46448;BME280;32145;50.390;30.778;2023-04-08T10:49:35;100562.25;;;16.26;52.35
46448;BME280;32145;50.390;30.778;2023-04-08T10:52:31;100561.94;;;16.44;51.74
46448;BME280;32145;50.390;30.778;2023-04-08T10:55:28;100564.03;;;16.65;51.19
46448;BME280;32145;50.390;30.778;2023-04-08T10:58:24;100561.78;;;16.56;50.19
46448;BME280;32145;50.390;30.778;2023-04-08T11:01:21;100558.94;;;16.46;50.74
46448;BME280;32145;50.390;30.778;2023-04-08T11:04:19;100562.19;;;16.43;50.18
46448;BME280;32145;50.390;30.778;2023-04-08T11:07:19;100553.38;;;16.41;50.55
46448;BME280;32145;50.390;30.778;2023-04-08T11:10:15;100545.75;;;16.43;50.17
46448;BME280;32145;50.390;30.778;2023-04-08T11:13:11;100541.97;;;16.49;50.70
46448;BME280;32145;50.390;30.778;2023-04-08T11:16:08;100541.53;;;16.57;50.61
46448;BME280;32145;50.390;30.778;2023-04-08T11:19:06;100533.72;;;16.71;50.79
46448;BME280;32145;50.390;30.778;2023-04-08T11:22:03;100524.88;;;16.92;50.75
46448;BME280;32145;50.390;30.778;2023-04-08T11:25:00;100534.84;;;17.03;50.61
46448;BME280;32145;50.390;30.778;2023-04-08T11:27:56;100518.41;;;17.03;50.61
46448;BME280;32145;50.390;30.778;2023-04-08T11:30:53;100513.31;;;17.12;50.51
46448;BME280;32145;50.390;30.778;2023-04-08T11:33:52;100521.22;;;17.08;49.79
46448;BME280;32145;50.390;30.778;2023-04-08T11:36:50;100520.88;;;16.99;49.91
46448;BME280;32145;50.390;30.778;2023-04-08T11:39:48;100523.19;;;16.85;49.27
46448;BME280;32145;50.390;30.778;2023-04-08T11:42:45;100512.50;;;16.56;50.33
46448;BME280;32145;50.390;30.778;2023-04-08T11:45:41;100511.50;;;16.62;50.36
46448;BME280;32145;50.390;30.778;2023-04-08T11:48:37;100500.38;;;16.74;50.40
46448;BME280;32145;50.390;30.778;2023-04-08T11:51:52;100500.03;;;16.66;49.67
46448;BME280;32145;50.390;30.778;2023-04-08T11:54:50;100498.22;;;16.77;49.75
46448;BME280;32145;50.390;30.778;2023-04-08T11:57:46;100492.13;;;17.02;49.65
46448;BME280;32145;50.390;30.778;2023-04-08T12:00:40;100481.88;;;17.25;48.97
46448;BME280;32145;50.390;30.778;2023-04-08T12:03:35;100481.41;;;17.33;47.68
46448;BME280;32145;50.390;30.778;2023-04-08T12:06:31;100473.34;;;17.16;48.14
46448;BME280;32145;50.390;30.778;2023-04-08T12:09:27;100470.94;;;17.25;48.06
46448;BME280;32145;50.390;30.778;2023-04-08T12:12:23;100473.84;;;17.51;48.32
46448;BME280;32145;50.390;30.778;2023-04-08T12:15:17;100466.28;;;17.79;48.18
46448;BME280;32145;50.390;30.778;2023-04-08T12:18:11;100458.97;;;18.00;47.54
46448;BME280;32145;50.390;30.778;2023-04-08T12:21:06;100465.38;;;18.22;46.66
46448;BME280;32145;50.390;30.778;2023-04-08T12:24:00;100451.66;;;18.22;45.57
46448;BME280;32145;50.390;30.778;2023-04-08T12:26:54;100458.78;;;18.28;45.08
46448;BME280;32145;50.390;30.778;2023-04-08T12:29:52;100459.31;;;18.20;45.13
46448;BME280;32145;50.390;30.778;2023-04-08T12:32:48;100463.09;;;18.03;46.36
46448;BME280;32145;50.390;30.778;2023-04-08T12:35:44;100470.13;;;17.78;47.58
46448;BME280;32145;50.390;30.778;2023-04-08T12:38:41;100493.91;;;17.19;52.14
46448;BME280;32145;50.390;30.778;2023-04-08T12:41:37;100488.34;;;16.48;55.27
46448;BME280;32145;50.390;30.778;2023-04-08T12:44:31;100483.25;;;16.07;56.29
46448;BME280;32145;50.390;30.778;2023-04-08T12:47:27;100471.41;;;15.79;55.44
46448;BME280;32145;50.390;30.778;2023-04-08T12:50:23;100465.22;;;15.89;54.91
46448;BME280;32145;50.390;30.778;2023-04-08T12:53:20;100464.81;;;15.97;54.97
46448;BME280;32145;50.390;30.778;2023-04-08T12:56:16;100469.38;;;16.14;55.37
46448;BME280;32145;50.390;30.778;2023-04-08T12:59:12;100465.16;;;16.01;55.09
46448;BME280;32145;50.390;30.778;2023-04-08T13:02:08;100480.50;;;15.84;55.52
46448;BME280;32145;50.390;30.778;2023-04-08T13:05:06;100485.81;;;15.74;55.72
46448;BME280;32145;50.390;30.778;2023-04-08T13:08:03;100486.25;;;15.66;56.41
46448;BME280;32145;50.390;30.778;2023-04-08T13:10:59;100504.94;;;15.52;56.21
46448;BME280;32145;50.390;30.778;2023-04-08T13:13:55;100522.03;;;15.25;55.61
46448;BME280;32145;50.390;30.778;2023-04-08T13:16:51;100527.81;;;14.94;55.71
46448;BME280;32145;50.390;30.778;2023-04-08T13:19:48;100529.56;;;14.71;55.72
46448;BME280;32145;50.390;30.778;2023-04-08T13:22:45;100533.91;;;14.55;55.94
46448;BME280;32145;50.390;30.778;2023-04-08T13:25:42;100535.81;;;14.54;56.71
46448;BME280;32145;50.390;30.778;2023-04-08T13:28:39;100531.19;;;14.55;56.90
46448;BME280;32145;50.390;30.778;2023-04-08T13:31:35;100537.84;;;14.76;57.23
46448;BME280;32145;50.390;30.778;2023-04-08T13:34:31;100531.28;;;14.89;56.31
46448;BME280;32145;50.390;30.778;2023-04-08T13:37:28;100529.38;;;14.90;56.01
46448;BME280;32145;50.390;30.778;2023-04-08T13:40:23;100536.00;;;14.94;55.03
46448;BME280;32145;50.390;30.778;2023-04-08T13:43:17;100524.16;;;14.88;54.47
46448;BME280;32145;50.390;30.778;2023-04-08T13:46:12;100513.41;;;14.81;54.76
46448;BME280;32145;50.390;30.778;2023-04-08T13:49:06;100512.03;;;14.67;54.55
46448;BME280;32145;50.390;30.778;2023-04-08T13:52:03;100506.97;;;14.59;54.26
46448;BME280;32145;50.390;30.778;2023-04-08T13:54:59;100516.47;;;14.56;53.39
46448;BME280;32145;50.390;30.778;2023-04-08T13:57:57;100508.19;;;14.51;54.38
46448;BME280;32145;50.390;30.778;2023-04-08T14:00:53;100501.09;;;14.50;53.63
46448;BME280;32145;50.390;30.778;2023-04-08T14:03:49;100502.25;;;14.54;53.73
46448;BME280;32145;50.390;30.778;2023-04-08T14:06:46;100489.41;;;14.54;54.17
46448;BME280;32145;50.390;30.778;2023-04-08T14:09:40;100490.34;;;14.60;53.74
46448;BME280;32145;50.390;30.778;2023-04-08T14:12:34;100481.13;;;14.78;53.00
46448;BME280;32145;50.390;30.778;2023-04-08T14:15:30;100476.53;;;14.96;52.34
46448;BME280;32145;50.390;30.778;2023-04-08T14:18:24;100468.72;;;15.22;52.81
46448;BME280;32145;50.390;30.778;2023-04-08T14:21:21;100470.84;;;15.54;52.21
46448;BME280;32145;50.390;30.778;2023-04-08T14:24:17;100462.69;;;15.59;50.70
46448;BME280;32145;50.390;30.778;2023-04-08T14:27:14;100464.19;;;15.50;50.48
46448;BME280;32145;50.390;30.778;2023-04-08T14:30:11;100462.75;;;15.25;50.54
46448;BME280;32145;50.390;30.778;2023-04-08T14:33:06;100456.00;;;15.11;50.45
46448;BME280;32145;50.390;30.778;2023-04-08T14:35:54;100459.78;;;15.10;50.91
46448;BME280;32145;50.390;30.778;2023-04-08T14:38:50;100450.31;;;14.95;49.75
46448;BME280;32145;50.390;30.778;2023-04-08T14:41:46;100454.03;;;14.89;49.14
46448;BME280;32145;50.390;30.778;2023-04-08T14:44:37;100433.16;;;14.82;48.53
46448;BME280;32145;50.390;30.778;2023-04-08T14:47:34;100437.47;;;14.78;48.36
46448;BME280;32145;50.390;30.778;2023-04-08T14:50:31;100441.97;;;14.73;49.12
46448;BME280;32145;50.390;30.778;2023-04-08T14:53:20;100441.09;;;14.67;48.93
46448;BME280;32145;50.390;30.778;2023-04-08T14:56:10;100453.31;;;14.64;49.39
46448;BME280;32145;50.390;30.778;2023-04-08T14:59:04;100456.56;;;14.61;49.42
46448;BME280;32145;50.390;30.778;2023-04-08T15:01:53;100457.28;;;14.56;48.91
46448;BME280;32145;50.390;30.778;2023-04-08T15:04:37;100464.31;;;14.52;49.32
46448;BME280;32145;50.390;30.778;2023-04-08T15:07:26;100460.41;;;14.48;49.46
46448;BME280;32145;50.390;30.778;2023-04-08T15:10:11;100457.25;;;14.39;49.50
46448;BME280;32145;50.390;30.778;2023-04-08T15:13:07;100465.81;;;14.31;50.21